createdAt,value
2019-02-26T00:00:58.530Z,0.84
2019-02-26T00:01:58.004Z,0.75
2019-02-26T00:03:01.759Z,0.69
2019-02-26T00:03:56.520Z,0.66
2019-02-26T00:04:58.459Z,0.65
2019-02-26T00:05:56.806Z,0.53
2019-02-26T00:06:57.813Z,0.49
2019-02-26T00:07:57.829Z,0.47
2019-02-26T00:08:58.605Z,0.46
2019-02-26T00:09:57.545Z,0.49
2019-02-26T00:10:58.535Z,0.57
2019-02-26T00:11:55.843Z,0.56
2019-02-26T00:12:55.763Z,0.56
2019-02-26T00:13:57.328Z,0.57
2019-02-26T00:14:56.918Z,0.53
2019-02-26T00:15:55.514Z,0.56
2019-02-26T00:16:55.427Z,0.57
2019-02-26T00:17:55.338Z,0.52
2019-02-26T00:18:56.267Z,0.50
2019-02-26T00:19:55.175Z,0.57
2019-02-26T00:20:56.667Z,0.49
2019-02-26T00:21:55.008Z,0.47
2019-02-26T00:22:55.861Z,0.53
2019-02-26T00:23:54.840Z,0.52
2019-02-26T00:24:54.756Z,0.61
2019-02-26T00:25:54.672Z,0.62
2019-02-26T00:26:54.588Z,0.68
2019-02-26T00:27:56.348Z,0.64
2019-02-26T00:28:54.422Z,0.68
2019-02-26T00:29:55.188Z,0.68
2019-02-26T00:30:55.119Z,0.64
2019-02-26T00:31:56.109Z,0.72
2019-02-26T00:32:55.346Z,0.66
2019-02-26T00:33:54.000Z,0.66
2019-02-26T00:34:55.822Z,0.71
2019-02-26T00:35:53.834Z,0.71
2019-02-26T00:36:53.749Z,0.64
2019-02-26T00:37:55.740Z,0.62
2019-02-26T00:38:53.588Z,0.62
2019-02-26T00:39:54.140Z,0.62
2019-02-26T00:40:54.982Z,0.62
2019-02-26T00:41:54.049Z,0.59
2019-02-26T00:42:56.490Z,0.59
2019-02-26T00:43:53.509Z,0.59
2019-02-26T00:44:55.333Z,0.61
2019-02-26T00:45:53.457Z,0.53
2019-02-26T00:46:53.597Z,0.43
2019-02-26T00:47:52.828Z,0.45
2019-02-26T00:48:52.740Z,0.31
2019-02-26T00:49:53.491Z,0.24
2019-02-26T00:50:54.314Z,0.16
2019-02-26T00:51:52.864Z,0.04
2019-02-26T00:52:54.623Z,0.04
2019-02-26T00:53:53.318Z,0.01
2019-02-26T00:54:53.582Z,-0.10
2019-02-26T00:55:54.306Z,-0.11
2019-02-26T00:56:52.071Z,-0.08
2019-02-26T00:57:51.993Z,-0.02
2019-02-26T00:58:51.897Z,0.06
2019-02-26T00:59:51.817Z,0.04
2019-02-26T01:00:51.729Z,0.06
2019-02-26T01:01:52.624Z,0.07
2019-02-26T01:02:51.566Z,0.16
2019-02-26T01:03:51.939Z,0.14
2019-02-26T01:04:51.395Z,0.27
2019-02-26T01:05:51.334Z,0.16
2019-02-26T01:06:51.231Z,0.11
2019-02-26T01:07:52.597Z,0.21
2019-02-26T01:08:51.063Z,0.13
2019-02-26T01:09:52.493Z,0.25
2019-02-26T01:10:50.888Z,0.27
2019-02-26T01:11:51.958Z,0.24
2019-02-26T01:12:50.719Z,0.29
2019-02-26T01:13:51.201Z,0.31
2019-02-26T01:14:50.557Z,0.24
2019-02-26T01:15:50.471Z,0.21
2019-02-26T01:16:50.390Z,0.22
2019-02-26T01:17:50.305Z,0.16
2019-02-26T01:18:51.113Z,0.17
2019-02-26T01:19:50.134Z,0.18
2019-02-26T01:20:50.685Z,0.17
2019-02-26T01:21:49.974Z,0.11
2019-02-26T01:22:49.880Z,0.14
2019-02-26T01:23:49.800Z,0.14
2019-02-26T01:24:50.236Z,0.10
2019-02-26T01:25:49.633Z,0.01
2019-02-26T01:26:49.556Z,-0.04
2019-02-26T01:27:51.078Z,-0.08
2019-02-26T01:28:51.167Z,-0.17
2019-02-26T01:29:51.272Z,-0.23
2019-02-26T01:30:53.651Z,-0.20
2019-02-26T01:31:49.125Z,-0.20
2019-02-26T01:32:49.043Z,-0.20
2019-02-26T01:33:50.747Z,-0.10
2019-02-26T01:34:49.546Z,-0.02
2019-02-26T01:35:50.206Z,0.01
2019-02-26T01:36:49.602Z,-0.04
2019-02-26T01:37:49.356Z,0.04
2019-02-26T01:38:49.170Z,0.06
2019-02-26T01:39:50.175Z,0.03
2019-02-26T01:40:51.071Z,0.07
2019-02-26T01:41:50.380Z,0.01
2019-02-26T01:42:52.228Z,-0.08
2019-02-26T01:43:48.107Z,-0.08
2019-02-26T01:44:48.030Z,-0.05
2019-02-26T01:45:48.606Z,-0.07
2019-02-26T01:46:47.862Z,0.03
2019-02-26T01:47:48.791Z,0.03
2019-02-26T01:48:47.694Z,0.03
2019-02-26T01:49:49.405Z,0.03
2019-02-26T01:50:47.526Z,-0.04
2019-02-26T01:51:49.514Z,-0.05
2019-02-26T01:52:47.359Z,-0.12
2019-02-26T01:53:49.073Z,-0.12
2019-02-26T01:54:47.186Z,-0.12
2019-02-26T01:55:48.309Z,-0.14
2019-02-26T01:56:47.016Z,-0.12
2019-02-26T01:57:46.935Z,-0.12
2019-02-26T01:58:56.165Z,-0.11
2019-02-26T01:59:47.396Z,-0.08
2019-02-26T02:00:46.693Z,-0.10
2019-02-26T02:01:48.890Z,-0.11
2019-02-26T02:02:46.513Z,-0.10
2019-02-26T02:03:47.033Z,-0.11
2019-02-26T02:04:46.350Z,-0.15
2019-02-26T02:05:47.850Z,-0.26
2019-02-26T02:06:46.178Z,-0.32
2019-02-26T02:07:47.219Z,-0.37
2019-02-26T02:08:48.117Z,-0.35
2019-02-26T02:09:48.654Z,-0.35
2019-02-26T02:10:45.836Z,-0.33
2019-02-26T02:11:45.753Z,-0.37
2019-02-26T02:12:45.667Z,-0.30
2019-02-26T02:13:45.586Z,-0.40
2019-02-26T02:14:45.502Z,-0.40
2019-02-26T02:15:46.549Z,-0.40
2019-02-26T02:16:45.333Z,-0.37
2019-02-26T02:17:45.246Z,-0.40
2019-02-26T02:18:48.146Z,-0.37
2019-02-26T02:19:45.076Z,-0.38
2019-02-26T02:20:44.994Z,-0.37
2019-02-26T02:21:46.897Z,-0.25
2019-02-26T02:22:44.822Z,-0.29
2019-02-26T02:23:46.430Z,-0.19
2019-02-26T02:24:46.709Z,-0.22
2019-02-26T02:25:45.657Z,-0.22
2019-02-26T02:26:47.497Z,-0.14
2019-02-26T02:27:47.696Z,-0.19
2019-02-26T02:28:44.321Z,-0.22
2019-02-26T02:29:46.125Z,-0.35
2019-02-26T02:30:44.143Z,-0.35
2019-02-26T02:31:44.066Z,-0.38
2019-02-26T02:32:43.999Z,-0.40
2019-02-26T02:33:43.903Z,-0.43
2019-02-26T02:34:43.820Z,-0.58
2019-02-26T02:35:43.731Z,-0.59
2019-02-26T02:36:43.642Z,-0.44
2019-02-26T02:37:43.559Z,-0.58
2019-02-26T02:38:43.478Z,-0.62
2019-02-26T02:39:43.387Z,-0.53
2019-02-26T02:40:46.168Z,-0.59
2019-02-26T02:41:45.431Z,-0.47
2019-02-26T02:42:45.733Z,-0.50
2019-02-26T02:43:43.052Z,-0.46
2019-02-26T02:44:44.846Z,-0.48
2019-02-26T02:45:42.889Z,-0.40
2019-02-26T02:46:44.580Z,-0.32
2019-02-26T02:47:42.709Z,-0.37
2019-02-26T02:48:42.623Z,-0.41
2019-02-26T02:49:44.328Z,-0.38
2019-02-26T02:50:42.452Z,-0.35
2019-02-26T02:51:42.376Z,-0.37
2019-02-26T02:52:42.290Z,-0.35
2019-02-26T02:53:45.010Z,-0.22
2019-02-26T02:54:43.956Z,-0.23
2019-02-26T02:55:44.257Z,-0.28
2019-02-26T02:56:44.254Z,-0.35
2019-02-26T02:57:41.865Z,-0.29
2019-02-26T02:58:43.613Z,-0.29
2019-02-26T02:59:42.226Z,-0.29
2019-02-26T03:00:41.614Z,-0.26
2019-02-26T03:01:43.076Z,-0.40
2019-02-26T03:02:43.390Z,-0.29
2019-02-26T03:03:41.357Z,-0.44
2019-02-26T03:04:41.292Z,-0.40
2019-02-26T03:05:43.211Z,-0.44
2019-02-26T03:06:41.125Z,-0.40
2019-02-26T03:07:42.277Z,-0.44
2019-02-26T03:08:42.372Z,-0.44
2019-02-26T03:09:43.065Z,-0.41
2019-02-26T03:10:43.063Z,-0.47
2019-02-26T03:11:41.971Z,-0.38
2019-02-26T03:12:40.598Z,-0.44
2019-02-26T03:13:42.916Z,-0.48
2019-02-26T03:14:42.101Z,-0.58
2019-02-26T03:15:40.345Z,-0.47
2019-02-26T03:16:42.478Z,-0.58
2019-02-26T03:17:40.175Z,-0.51
2019-02-26T03:18:40.091Z,-0.58
2019-02-26T03:19:41.603Z,-0.61
2019-02-26T03:20:40.440Z,-0.47
2019-02-26T03:21:41.932Z,-0.50
2019-02-26T03:22:45.096Z,-0.56
2019-02-26T03:23:41.211Z,-0.58
2019-02-26T03:24:39.579Z,-0.64
2019-02-26T03:25:41.377Z,-0.65
2019-02-26T03:26:39.416Z,-0.66
2019-02-26T03:27:40.582Z,-0.69
2019-02-26T03:28:39.971Z,-0.79
2019-02-26T03:29:39.158Z,-0.80
2019-02-26T03:30:43.882Z,-0.83
2019-02-26T03:31:41.022Z,-0.90
2019-02-26T03:32:41.284Z,-0.77
2019-02-26T03:33:38.822Z,-0.82
2019-02-26T03:34:38.751Z,-0.76
2019-02-26T03:35:38.665Z,-0.72
2019-02-26T03:36:40.805Z,-0.72
2019-02-26T03:37:38.486Z,-0.71
2019-02-26T03:38:38.398Z,-0.71
2019-02-26T03:39:38.313Z,-0.58
2019-02-26T03:40:38.226Z,-0.65
2019-02-26T03:41:38.147Z,-0.59
2019-02-26T03:42:39.023Z,-0.62
2019-02-26T03:43:39.290Z,-0.54
2019-02-26T03:44:37.893Z,-0.58
2019-02-26T03:45:37.806Z,-0.58
2019-02-26T03:46:37.720Z,-0.68
2019-02-26T03:47:40.029Z,-0.64
2019-02-26T03:48:37.551Z,-0.59
2019-02-26T03:49:41.672Z,-0.61
2019-02-26T03:50:37.388Z,-0.64
2019-02-26T03:51:39.732Z,-0.56
2019-02-26T03:52:37.214Z,-0.59
2019-02-26T03:53:39.245Z,-0.54
2019-02-26T03:54:39.840Z,-0.58
2019-02-26T03:55:38.974Z,-0.56
2019-02-26T03:56:36.872Z,-0.64
2019-02-26T03:57:41.072Z,-0.61
2019-02-26T03:58:36.719Z,-0.58
2019-02-26T03:59:36.623Z,-0.66
2019-02-26T04:00:38.434Z,-0.56
2019-02-26T04:01:36.448Z,-0.59
2019-02-26T04:02:37.511Z,-0.56
2019-02-26T04:03:37.600Z,-0.68
2019-02-26T04:04:36.190Z,-0.61
2019-02-26T04:05:36.115Z,-0.65
2019-02-26T04:06:38.365Z,-0.59
2019-02-26T04:07:36.144Z,-0.61
2019-02-26T04:08:35.856Z,-0.58
2019-02-26T04:09:39.113Z,-0.59
2019-02-26T04:10:35.694Z,-0.66
2019-02-26T04:11:35.601Z,-0.72
2019-02-26T04:12:39.150Z,-0.71
2019-02-26T04:13:35.434Z,-0.69
2019-02-26T04:14:35.369Z,-0.66
2019-02-26T04:15:36.455Z,-0.69
2019-02-26T04:16:35.940Z,-0.71
2019-02-26T04:17:36.981Z,-0.71
2019-02-26T04:18:35.004Z,-0.68
2019-02-26T04:19:34.922Z,-0.68
2019-02-26T04:20:34.845Z,-0.74
2019-02-26T04:21:34.751Z,-0.76
2019-02-26T04:22:34.675Z,-0.74
2019-02-26T04:23:36.085Z,-0.68
2019-02-26T04:24:37.384Z,-0.58
2019-02-26T04:25:36.518Z,-0.59
2019-02-26T04:26:35.082Z,-0.59
2019-02-26T04:27:36.300Z,-0.62
2019-02-26T04:28:37.177Z,-0.56
2019-02-26T04:29:36.109Z,-0.61
2019-02-26T04:30:36.532Z,-0.66
2019-02-26T04:31:33.907Z,-0.69
2019-02-26T04:32:37.791Z,-0.69
2019-02-26T04:33:36.006Z,-0.71
2019-02-26T04:34:33.650Z,-0.74
2019-02-26T04:35:33.565Z,-0.80
2019-02-26T04:36:34.440Z,-0.74
2019-02-26T04:37:35.222Z,-0.76
2019-02-26T04:38:33.311Z,-0.76
2019-02-26T04:39:34.483Z,-0.76
2019-02-26T04:40:35.764Z,-0.95
2019-02-26T04:41:33.059Z,-0.84
2019-02-26T04:42:35.204Z,-0.95
2019-02-26T04:43:34.146Z,-0.86
2019-02-26T04:44:34.232Z,-0.91
2019-02-26T04:45:32.712Z,-0.90
2019-02-26T04:46:34.452Z,-1.01
2019-02-26T04:47:33.733Z,-0.90
2019-02-26T04:48:34.265Z,-0.90
2019-02-26T04:49:34.000Z,-0.96
2019-02-26T04:50:35.334Z,-0.91
2019-02-26T04:51:35.859Z,-0.91
2019-02-26T04:52:34.708Z,-0.99
2019-02-26T04:53:35.857Z,-0.95
2019-02-26T04:54:33.689Z,-0.98
2019-02-26T04:55:35.025Z,-1.01
2019-02-26T04:56:36.027Z,-1.02
2019-02-26T04:57:31.697Z,-1.02
2019-02-26T04:58:31.611Z,-0.91
2019-02-26T04:59:32.435Z,-0.83
2019-02-26T05:00:35.342Z,-0.82
2019-02-26T05:01:31.353Z,-0.90
2019-02-26T05:02:31.272Z,-0.80
2019-02-26T05:03:31.194Z,-0.77
2019-02-26T05:04:33.805Z,-0.77
2019-02-26T05:05:33.714Z,-0.80
2019-02-26T05:06:30.930Z,-0.80
2019-02-26T05:07:32.818Z,-0.83
2019-02-26T05:08:32.134Z,-0.80
2019-02-26T05:09:32.825Z,-0.79
2019-02-26T05:10:32.299Z,-0.82
2019-02-26T05:11:32.642Z,-0.82
2019-02-26T05:12:33.399Z,-0.77
2019-02-26T05:13:32.622Z,-0.76
2019-02-26T05:14:30.256Z,-0.83
2019-02-26T05:15:33.061Z,-0.77
2019-02-26T05:16:32.700Z,-0.76
2019-02-26T05:17:32.978Z,-0.74
2019-02-26T05:18:32.697Z,-0.66
2019-02-26T05:19:29.826Z,-0.68
2019-02-26T05:20:31.424Z,-0.69
2019-02-26T05:21:30.398Z,-0.61
2019-02-26T05:22:30.981Z,-0.64
2019-02-26T05:23:31.698Z,-0.59
2019-02-26T05:24:29.403Z,-0.65
2019-02-26T05:25:31.298Z,-0.56
2019-02-26T05:26:30.166Z,-0.53
2019-02-26T05:27:29.149Z,-0.65
2019-02-26T05:28:29.883Z,-0.62
2019-02-26T05:29:28.980Z,-0.65
2019-02-26T05:30:28.895Z,-0.64
2019-02-26T05:31:29.809Z,-0.58
2019-02-26T05:32:30.956Z,-0.58
2019-02-26T05:33:30.970Z,-0.64
2019-02-26T05:34:28.556Z,-0.62
2019-02-26T05:35:28.470Z,-0.56
2019-02-26T05:36:28.466Z,-0.59
2019-02-26T05:37:29.165Z,-0.74
2019-02-26T05:38:30.571Z,-0.72
2019-02-26T05:39:28.809Z,-0.76
2019-02-26T05:40:28.047Z,-0.79
2019-02-26T05:41:27.963Z,-0.79
2019-02-26T05:42:27.887Z,-0.80
2019-02-26T05:43:28.285Z,-0.76
2019-02-26T05:44:27.707Z,-0.71
2019-02-26T05:45:30.017Z,-0.69
2019-02-26T05:46:29.508Z,-0.69
2019-02-26T05:47:27.451Z,-0.72
2019-02-26T05:48:27.388Z,-0.71
2019-02-26T05:49:27.289Z,-0.77
2019-02-26T05:50:29.563Z,-0.76
2019-02-26T05:51:27.937Z,-0.87
2019-02-26T05:52:28.130Z,-0.95
2019-02-26T05:53:26.941Z,-0.93
2019-02-26T05:54:26.863Z,-0.98
2019-02-26T05:55:28.157Z,-1.02
2019-02-26T05:56:26.687Z,-1.03
2019-02-26T05:57:32.334Z,-0.90
2019-02-26T05:58:26.516Z,-1.03
2019-02-26T05:59:26.431Z,-0.98
2019-02-26T06:00:30.620Z,-1.05
2019-02-26T06:01:27.864Z,-1.08
2019-02-26T06:02:26.177Z,-1.05
2019-02-26T06:03:26.100Z,-1.05
2019-02-26T06:04:26.008Z,-0.99
2019-02-26T06:05:26.202Z,-0.91
2019-02-26T06:06:25.836Z,-0.93
2019-02-26T06:07:29.738Z,-1.01
2019-02-26T06:08:29.146Z,-0.98
2019-02-26T06:09:28.083Z,-0.91
2019-02-26T06:10:27.202Z,-0.83
2019-02-26T06:11:28.290Z,-0.76
2019-02-26T06:12:25.326Z,-0.79
2019-02-26T06:13:25.249Z,-0.71
2019-02-26T06:14:27.420Z,-0.80
2019-02-26T06:15:25.945Z,-0.72
2019-02-26T06:16:27.134Z,-0.83
2019-02-26T06:17:24.908Z,-0.77
2019-02-26T06:18:24.819Z,-0.83
2019-02-26T06:19:24.742Z,-0.87
2019-02-26T06:20:26.711Z,-0.91
2019-02-26T06:21:26.032Z,-0.90
2019-02-26T06:22:27.190Z,-0.86
2019-02-26T06:23:25.536Z,-0.83
2019-02-26T06:24:24.841Z,-0.96
2019-02-26T06:25:24.705Z,-0.87
2019-02-26T06:26:28.115Z,-0.90
2019-02-26T06:27:25.211Z,-0.79
2019-02-26T06:28:23.968Z,-0.98
2019-02-26T06:29:24.731Z,-0.91
2019-02-26T06:30:23.799Z,-0.82
2019-02-26T06:31:24.914Z,-0.83
2019-02-26T06:32:27.519Z,-0.86
2019-02-26T06:33:23.542Z,-0.90
2019-02-26T06:34:23.457Z,-0.91
2019-02-26T06:35:23.370Z,-0.80
2019-02-26T06:36:23.901Z,-0.86
2019-02-26T06:37:23.668Z,-0.86
2019-02-26T06:38:24.222Z,-0.84
2019-02-26T06:39:24.562Z,-0.84
2019-02-26T06:40:22.945Z,-0.90
2019-02-26T06:41:22.861Z,-0.86
2019-02-26T06:42:22.783Z,-0.95
2019-02-26T06:43:22.696Z,-0.95
2019-02-26T06:44:22.599Z,-0.86
2019-02-26T06:45:22.520Z,-0.90
2019-02-26T06:46:22.440Z,-0.83
2019-02-26T06:47:24.117Z,-0.76
2019-02-26T06:48:24.522Z,-0.76
2019-02-26T06:49:24.167Z,-0.69
2019-02-26T06:50:22.106Z,-0.69
2019-02-26T06:51:24.315Z,-0.71
2019-02-26T06:52:21.929Z,-0.56
2019-02-26T06:53:21.844Z,-0.58
2019-02-26T06:54:22.727Z,-0.61
2019-02-26T06:55:21.670Z,-0.56
2019-02-26T06:56:21.582Z,-0.61
2019-02-26T06:57:21.565Z,-0.54
2019-02-26T06:58:21.414Z,-0.56
2019-02-26T06:59:21.326Z,-0.58
2019-02-26T07:00:23.905Z,-0.56
2019-02-26T07:01:21.163Z,-0.46
2019-02-26T07:02:21.077Z,-0.40
2019-02-26T07:03:24.193Z,-0.38
2019-02-26T07:04:20.908Z,-0.28
2019-02-26T07:05:23.842Z,-0.37
2019-02-26T07:06:22.967Z,-0.38
2019-02-26T07:07:20.654Z,-0.30
2019-02-26T07:08:21.971Z,-0.30
2019-02-26T07:09:20.549Z,-0.23
2019-02-26T07:10:23.671Z,-0.19
2019-02-26T07:11:20.311Z,-0.17
2019-02-26T07:12:22.215Z,-0.12
2019-02-26T07:13:20.150Z,-0.10
2019-02-26T07:14:20.057Z,0.01
2019-02-26T07:15:19.980Z,0.06
2019-02-26T07:16:20.620Z,0.06
2019-02-26T07:17:19.803Z,0.04
2019-02-26T07:18:19.780Z,0.07
2019-02-26T07:19:19.630Z,0.17
2019-02-26T07:20:19.546Z,0.11
2019-02-26T07:21:19.465Z,0.18
2019-02-26T07:22:19.377Z,0.27
2019-02-26T07:23:19.301Z,0.31
2019-02-26T07:24:20.698Z,0.28
2019-02-26T07:25:19.126Z,0.36
2019-02-26T07:26:20.782Z,0.36
2019-02-26T07:27:18.953Z,0.35
2019-02-26T07:28:20.642Z,0.42
2019-02-26T07:29:18.789Z,0.49
2019-02-26T07:30:18.702Z,0.46
2019-02-26T07:31:18.618Z,0.52
2019-02-26T07:32:20.212Z,0.53
2019-02-26T07:33:18.448Z,0.53
2019-02-26T07:34:20.447Z,0.56
2019-02-26T07:35:18.287Z,0.69
2019-02-26T07:36:20.641Z,0.66
2019-02-26T07:37:18.107Z,0.79
2019-02-26T07:38:18.250Z,0.66
2019-02-26T07:39:20.086Z,0.80
2019-02-26T07:40:18.629Z,0.89
2019-02-26T07:41:18.860Z,0.93
2019-02-26T07:42:18.805Z,1.05
2019-02-26T07:43:19.489Z,1.15
2019-02-26T07:44:18.751Z,1.28
2019-02-26T07:45:19.681Z,1.43
2019-02-26T07:46:19.200Z,1.59
2019-02-26T07:47:17.271Z,1.80
2019-02-26T07:48:21.108Z,1.98
2019-02-26T07:49:17.095Z,2.10
2019-02-26T07:50:17.467Z,2.24
2019-02-26T07:51:16.929Z,2.52
2019-02-26T07:52:16.844Z,2.71
2019-02-26T07:53:18.038Z,2.86
2019-02-26T07:54:16.685Z,2.98
2019-02-26T07:55:17.428Z,3.07
2019-02-26T07:56:16.515Z,3.29
2019-02-26T07:57:18.084Z,3.47
2019-02-26T07:58:17.808Z,3.61
2019-02-26T07:59:16.256Z,3.71
2019-02-26T08:00:16.177Z,3.74
2019-02-26T08:01:16.093Z,3.98
2019-02-26T08:02:16.015Z,4.04
2019-02-26T08:03:17.410Z,4.22
2019-02-26T08:04:18.269Z,4.32
2019-02-26T08:05:16.970Z,4.36
2019-02-26T08:06:15.683Z,4.48
2019-02-26T08:07:15.589Z,4.58
2019-02-26T08:08:17.042Z,4.64
2019-02-26T08:09:17.132Z,4.77
2019-02-26T08:10:16.975Z,4.80
2019-02-26T08:11:15.255Z,4.93
2019-02-26T08:12:15.170Z,5.13
2019-02-26T08:13:15.093Z,5.31
2019-02-26T08:14:16.104Z,5.42
2019-02-26T08:15:15.426Z,5.57
2019-02-26T08:16:14.846Z,5.59
2019-02-26T08:17:14.759Z,5.75
2019-02-26T08:18:14.679Z,5.99
2019-02-26T08:19:14.596Z,6.06
2019-02-26T08:20:14.872Z,6.18
2019-02-26T08:21:14.441Z,6.30
2019-02-26T08:22:14.350Z,6.36
2019-02-26T08:23:14.753Z,6.47
2019-02-26T08:24:14.890Z,6.52
2019-02-26T08:25:14.101Z,6.50
2019-02-26T08:26:15.516Z,6.66
2019-02-26T08:27:13.939Z,6.72
2019-02-26T08:28:15.444Z,6.83
2019-02-26T08:29:13.773Z,6.87
2019-02-26T08:30:14.746Z,6.98
2019-02-26T08:31:15.621Z,7.05
2019-02-26T08:32:15.882Z,7.11
2019-02-26T08:33:13.444Z,7.09
2019-02-26T08:34:15.681Z,7.26
2019-02-26T08:35:13.285Z,7.27
2019-02-26T08:36:14.107Z,7.37
2019-02-26T08:37:13.118Z,7.44
2019-02-26T08:38:13.039Z,7.42
2019-02-26T08:39:15.615Z,7.52
2019-02-26T08:40:12.874Z,7.44
2019-02-26T08:41:12.793Z,7.63
2019-02-26T08:42:12.726Z,7.64
2019-02-26T08:43:12.639Z,7.60
2019-02-26T08:44:12.561Z,7.52
2019-02-26T08:45:14.896Z,7.67
2019-02-26T08:46:14.141Z,7.86
2019-02-26T08:47:13.908Z,8.06
2019-02-26T08:48:14.702Z,8.29
2019-02-26T08:49:13.778Z,8.33
2019-02-26T08:50:12.974Z,8.47
2019-02-26T08:51:15.794Z,8.55
2019-02-26T08:52:11.909Z,8.61
2019-02-26T08:53:11.820Z,8.72
2019-02-26T08:54:20.577Z,8.84
2019-02-26T08:55:13.089Z,9.05
2019-02-26T08:56:11.575Z,9.17
2019-02-26T08:57:12.026Z,9.13
2019-02-26T08:58:12.549Z,9.37
2019-02-26T08:59:11.340Z,9.53
2019-02-26T09:00:11.261Z,9.70
2019-02-26T09:01:11.187Z,9.78
2019-02-26T09:02:11.098Z,9.88
2019-02-26T09:03:13.235Z,10.04
2019-02-26T09:04:12.354Z,10.08
2019-02-26T09:05:11.938Z,10.16
2019-02-26T09:06:13.451Z,10.33
2019-02-26T09:07:10.699Z,10.40
2019-02-26T09:08:12.842Z,10.33
2019-02-26T09:09:10.540Z,10.25
2019-02-26T09:10:12.464Z,10.11
2019-02-26T09:11:11.458Z,10.11
2019-02-26T09:12:10.300Z,10.04
2019-02-26T09:13:11.528Z,10.19
2019-02-26T09:14:12.145Z,10.16
2019-02-26T09:15:10.056Z,10.18
2019-02-26T09:16:09.983Z,10.25
2019-02-26T09:17:09.900Z,10.41
2019-02-26T09:18:09.824Z,10.65
2019-02-26T09:19:09.742Z,10.77
2019-02-26T09:20:12.223Z,10.88
2019-02-26T09:21:10.194Z,10.98
2019-02-26T09:22:11.740Z,11.14
2019-02-26T09:23:09.427Z,11.21
2019-02-26T09:24:09.346Z,11.23
2019-02-26T09:25:09.272Z,11.26
2019-02-26T09:26:09.187Z,11.38
2019-02-26T09:27:09.109Z,11.49
2019-02-26T09:28:09.034Z,11.56
2019-02-26T09:29:10.306Z,11.78
2019-02-26T09:30:11.028Z,11.83
2019-02-26T09:31:09.638Z,11.94
2019-02-26T09:32:09.302Z,11.98
2019-02-26T09:33:10.923Z,12.06
2019-02-26T09:34:08.560Z,12.19
2019-02-26T09:35:08.478Z,12.30
2019-02-26T09:36:10.556Z,12.41
2019-02-26T09:37:08.323Z,12.44
2019-02-26T09:38:08.241Z,12.44
2019-02-26T09:39:08.712Z,12.55
2019-02-26T09:40:08.091Z,12.63
2019-02-26T09:41:10.021Z,12.59
2019-02-26T09:42:09.186Z,12.61
2019-02-26T09:43:07.853Z,12.69
2019-02-26T09:44:09.651Z,12.69
2019-02-26T09:45:07.690Z,12.70
2019-02-26T09:46:10.149Z,12.84
2019-02-26T09:47:07.685Z,12.88
2019-02-26T09:48:07.468Z,13.02
2019-02-26T09:49:10.520Z,13.17
2019-02-26T09:50:07.314Z,13.17
2019-02-26T09:51:09.307Z,13.22
2019-02-26T09:52:07.150Z,13.38
2019-02-26T09:53:07.080Z,13.41
2019-02-26T09:54:06.993Z,13.52
2019-02-26T09:55:06.916Z,13.59
2019-02-26T09:56:06.840Z,13.61
2019-02-26T09:57:06.767Z,13.68
2019-02-26T09:58:06.684Z,13.62
2019-02-26T09:59:07.122Z,13.73
2019-02-26T10:00:06.541Z,13.71
2019-02-26T10:01:08.553Z,13.73
2019-02-26T10:02:06.379Z,13.83
2019-02-26T10:03:09.797Z,13.87
2019-02-26T10:04:06.222Z,13.94
2019-02-26T10:05:06.769Z,14.02
2019-02-26T10:06:06.064Z,14.07
2019-02-26T10:07:07.539Z,14.13
2019-02-26T10:08:05.913Z,14.28
2019-02-26T10:09:05.840Z,14.39
2019-02-26T10:10:08.053Z,14.39
2019-02-26T10:11:05.689Z,14.41
2019-02-26T10:12:07.527Z,14.39
2019-02-26T10:13:05.523Z,14.35
2019-02-26T10:14:07.786Z,14.36
2019-02-26T10:15:05.395Z,14.35
2019-02-26T10:16:06.454Z,14.35
2019-02-26T10:17:05.219Z,14.42
2019-02-26T10:18:08.782Z,14.39
2019-02-26T10:19:05.099Z,14.39
2019-02-26T10:20:07.662Z,14.47
2019-02-26T10:21:06.788Z,14.39
2019-02-26T10:22:08.992Z,14.44
2019-02-26T10:23:06.400Z,14.59
2019-02-26T10:24:04.723Z,14.61
2019-02-26T10:25:04.605Z,14.74
2019-02-26T10:26:05.804Z,14.69
2019-02-26T10:27:05.996Z,14.67
2019-02-26T10:28:08.788Z,14.61
2019-02-26T10:29:04.861Z,14.60
2019-02-26T10:30:07.197Z,14.64
2019-02-26T10:31:06.474Z,14.80
2019-02-26T10:32:04.077Z,14.80
2019-02-26T10:33:04.005Z,14.90
2019-02-26T10:34:07.892Z,15.01
2019-02-26T10:35:04.582Z,15.15
2019-02-26T10:36:05.405Z,15.16
2019-02-26T10:37:03.696Z,15.34
2019-02-26T10:38:07.680Z,15.43
2019-02-26T10:39:03.553Z,15.57
2019-02-26T10:40:03.476Z,15.66
2019-02-26T10:41:05.053Z,15.67
2019-02-26T10:42:03.321Z,15.79
2019-02-26T10:43:03.241Z,15.78
2019-02-26T10:44:03.173Z,15.89
2019-02-26T10:45:03.095Z,16.01
2019-02-26T10:46:03.027Z,16.07
2019-02-26T10:47:04.054Z,15.92
2019-02-26T10:48:02.869Z,15.85
2019-02-26T10:49:02.787Z,15.78
2019-02-26T10:50:02.749Z,15.78
2019-02-26T10:51:06.083Z,15.89
2019-02-26T10:52:02.568Z,16.07
2019-02-26T10:53:09.682Z,16.16
2019-02-26T10:54:02.837Z,16.25
2019-02-26T10:55:02.342Z,16.14
2019-02-26T10:56:02.271Z,16.26
2019-02-26T10:57:06.455Z,16.33
2019-02-26T10:58:06.836Z,16.48
2019-02-26T10:59:03.475Z,16.40
2019-02-26T11:00:02.703Z,16.45
2019-02-26T11:01:05.112Z,16.55
2019-02-26T11:02:03.151Z,16.65
2019-02-26T11:03:01.773Z,16.73
2019-02-26T11:04:04.207Z,16.77
2019-02-26T11:05:01.594Z,16.81
2019-02-26T11:06:01.518Z,16.93
2019-02-26T11:07:02.374Z,16.96
2019-02-26T11:08:02.930Z,16.98
2019-02-26T11:09:01.918Z,17.00
2019-02-26T11:10:01.222Z,17.02
2019-02-26T11:11:01.149Z,17.03
2019-02-26T11:12:05.195Z,16.99
2019-02-26T11:13:01.000Z,16.99
2019-02-26T11:14:00.922Z,16.93
2019-02-26T11:15:01.626Z,17.00
2019-02-26T11:16:03.069Z,16.90
2019-02-26T11:17:00.697Z,17.02
2019-02-26T11:18:00.618Z,17.11
2019-02-26T11:19:02.376Z,17.18
2019-02-26T11:20:01.177Z,17.21
2019-02-26T11:21:00.398Z,17.25
2019-02-26T11:22:03.445Z,17.25
2019-02-26T11:23:00.250Z,17.25
2019-02-26T11:24:00.839Z,17.32
2019-02-26T11:25:01.074Z,17.44
2019-02-26T11:26:00.021Z,17.40
2019-02-26T11:26:59.955Z,17.48
2019-02-26T11:28:02.296Z,17.36
2019-02-26T11:28:59.800Z,17.43
2019-02-26T11:30:01.786Z,17.47
2019-02-26T11:30:59.655Z,17.53
2019-02-26T11:32:01.589Z,17.53
2019-02-26T11:33:04.792Z,17.64
2019-02-26T11:34:00.939Z,17.60
2019-02-26T11:35:00.288Z,17.64
2019-02-26T11:35:59.638Z,17.66
2019-02-26T11:37:02.797Z,17.63
2019-02-26T11:37:59.134Z,17.64
2019-02-26T11:39:01.666Z,17.63
2019-02-26T11:40:00.485Z,17.66
2019-02-26T11:40:58.926Z,17.73
2019-02-26T11:42:01.121Z,17.73
2019-02-26T11:43:00.057Z,17.82
2019-02-26T11:43:58.685Z,17.92
2019-02-26T11:44:58.609Z,17.95
2019-02-26T11:45:59.188Z,17.91
2019-02-26T11:46:58.478Z,18.02
2019-02-26T11:48:01.042Z,18.11
2019-02-26T11:48:58.320Z,18.10
2019-02-26T11:49:59.686Z,18.21
2019-02-26T11:51:00.825Z,18.09
2019-02-26T11:51:58.097Z,18.06
2019-02-26T11:52:58.028Z,18.13
2019-02-26T11:54:00.093Z,18.21
2019-02-26T11:54:58.900Z,18.18
2019-02-26T11:55:59.901Z,18.16
2019-02-26T11:56:57.729Z,18.11
2019-02-26T11:57:57.649Z,18.14
2019-02-26T11:58:57.576Z,18.21
2019-02-26T11:59:59.351Z,18.07
2019-02-26T12:00:57.499Z,18.10
2019-02-26T12:01:59.103Z,18.19
2019-02-26T12:02:57.288Z,18.10
2019-02-26T12:04:03.279Z,18.18
2019-02-26T12:04:57.466Z,18.28
2019-02-26T12:06:00.579Z,18.31
2019-02-26T12:06:58.609Z,18.46
2019-02-26T12:07:58.823Z,18.42
2019-02-26T12:08:56.844Z,18.47
2019-02-26T12:09:57.957Z,18.57
2019-02-26T12:11:01.130Z,18.55
2019-02-26T12:11:58.597Z,18.53
2019-02-26T12:12:57.271Z,18.44
2019-02-26T12:13:56.479Z,18.40
2019-02-26T12:14:56.407Z,18.35
2019-02-26T12:15:56.327Z,18.49
2019-02-26T12:16:56.252Z,18.42
2019-02-26T12:17:56.876Z,18.28
2019-02-26T12:18:56.114Z,18.18
2019-02-26T12:19:57.909Z,18.21
2019-02-26T12:20:55.964Z,18.28
2019-02-26T12:21:57.450Z,18.39
2019-02-26T12:22:55.818Z,18.42
2019-02-26T12:23:57.887Z,18.53
2019-02-26T12:24:56.012Z,18.57
2019-02-26T12:25:58.261Z,18.55
2019-02-26T12:26:55.526Z,18.55
2019-02-26T12:27:55.445Z,18.69
2019-02-26T12:28:57.332Z,18.71
2019-02-26T12:29:55.301Z,18.74
2019-02-26T12:30:55.229Z,18.79
2019-02-26T12:31:55.744Z,18.80
2019-02-26T12:32:55.296Z,18.74
2019-02-26T12:33:55.015Z,18.82
2019-02-26T12:34:54.938Z,18.74
2019-02-26T12:35:56.329Z,18.77
2019-02-26T12:36:57.252Z,18.77
2019-02-26T12:37:56.643Z,18.68
2019-02-26T12:38:56.420Z,18.76
2019-02-26T12:39:57.416Z,18.74
2019-02-26T12:40:54.497Z,18.76
2019-02-26T12:41:54.463Z,18.77
2019-02-26T12:42:54.356Z,18.83
2019-02-26T12:43:54.278Z,18.79
2019-02-26T12:44:57.231Z,18.76
2019-02-26T12:45:56.067Z,18.69
2019-02-26T12:46:56.701Z,18.74
2019-02-26T12:47:55.273Z,18.84
2019-02-26T12:48:53.943Z,18.68
2019-02-26T12:49:53.836Z,18.67
2019-02-26T12:50:55.576Z,18.68
2019-02-26T12:51:54.497Z,18.65
2019-02-26T12:52:53.857Z,18.69
2019-02-26T12:53:53.553Z,18.67
2019-02-26T12:54:54.978Z,18.71
2019-02-26T12:55:54.249Z,18.68
2019-02-26T12:56:54.975Z,18.71
2019-02-26T12:57:56.134Z,18.80
2019-02-26T12:58:54.555Z,18.82